sensor_id;sensor_type;location;lat;lon;timestamp;temperature;humidity
68578;SHT31;61668;45.388;11.784;2022-11-11T00:01:32;12.42;81.86
68578;SHT31;61668;45.388;11.784;2022-11-11T00:03:58;12.41;81.80
68578;SHT31;61668;45.388;11.784;2022-11-11T00:06:23;12.38;81.80
68578;SHT31;61668;45.388;11.784;2022-11-11T00:08:49;12.36;81.79
68578;SHT31;61668;45.388;11.784;2022-11-11T00:11:14;12.32;81.70
68578;SHT31;61668;45.388;11.784;2022-11-11T00:13:41;12.29;81.72
68578;SHT31;61668;45.388;11.784;2022-11-11T00:16:15;12.25;81.67
68578;SHT31;61668;45.388;11.784;2022-11-11T00:18:43;12.21;81.63
68578;SHT31;61668;45.388;11.784;2022-11-11T00:21:29;12.18;81.63
68578;SHT31;61668;45.388;11.784;2022-11-11T00:24:27;12.15;81.59
68578;SHT31;61668;45.388;11.784;2022-11-11T00:27:13;12.14;81.60
68578;SHT31;61668;45.388;11.784;2022-11-11T00:29:40;12.14;81.58
68578;SHT31;61668;45.388;11.784;2022-11-11T00:32:11;12.13;81.57
68578;SHT31;61668;45.388;11.784;2022-11-11T00:34:52;12.11;81.53
68578;SHT31;61668;45.388;11.784;2022-11-11T00:37:39;12.10;81.51
68578;SHT31;61668;45.388;11.784;2022-11-11T00:40:06;12.07;81.59
68578;SHT31;61668;45.388;11.784;2022-11-11T00:42:32;12.04;81.52
68578;SHT31;61668;45.388;11.784;2022-11-11T00:44:58;12.01;81.54
68578;SHT31;61668;45.388;11.784;2022-11-11T00:47:24;11.96;81.54
68578;SHT31;61668;45.388;11.784;2022-11-11T00:50:12;11.93;81.65
68578;SHT31;61668;45.388;11.784;2022-11-11T00:55:43;11.90;81.55
68578;SHT31;61668;45.388;11.784;2022-11-11T00:58:09;11.87;81.46
68578;SHT31;61668;45.388;11.784;2022-11-11T01:00:35;11.84;81.40
68578;SHT31;61668;45.388;11.784;2022-11-11T01:03:00;11.83;81.32
68578;SHT31;61668;45.388;11.784;2022-11-11T01:05:26;11.83;81.33
68578;SHT31;61668;45.388;11.784;2022-11-11T01:07:52;11.82;81.39
68578;SHT31;61668;45.388;11.784;2022-11-11T01:10:18;11.79;81.52
68578;SHT31;61668;45.388;11.784;2022-11-11T01:13:03;11.77;81.72
68578;SHT31;61668;45.388;11.784;2022-11-11T01:15:38;11.76;81.94
68578;SHT31;61668;45.388;11.784;2022-11-11T01:18:06;11.76;82.06
68578;SHT31;61668;45.388;11.784;2022-11-11T01:20:32;11.74;82.14
68578;SHT31;61668;45.388;11.784;2022-11-11T01:22:59;11.73;82.24
68578;SHT31;61668;45.388;11.784;2022-11-11T01:25:24;11.73;82.31
68578;SHT31;61668;45.388;11.784;2022-11-11T01:27:49;11.71;82.40
68578;SHT31;61668;45.388;11.784;2022-11-11T01:30:15;11.72;82.32
68578;SHT31;61668;45.388;11.784;2022-11-11T01:32:41;11.68;82.23
68578;SHT31;61668;45.388;11.784;2022-11-11T01:35:06;11.65;82.21
68578;SHT31;61668;45.388;11.784;2022-11-11T01:37:32;11.65;82.29
68578;SHT31;61668;45.388;11.784;2022-11-11T01:39:59;11.62;82.21
68578;SHT31;61668;45.388;11.784;2022-11-11T01:42:24;11.61;82.03
68578;SHT31;61668;45.388;11.784;2022-11-11T01:44:50;11.59;82.00
68578;SHT31;61668;45.388;11.784;2022-11-11T01:47:16;11.56;82.01
68578;SHT31;61668;45.388;11.784;2022-11-11T01:49:46;11.54;82.07
68578;SHT31;61668;45.388;11.784;2022-11-11T01:54:54;11.53;81.92
68578;SHT31;61668;45.388;11.784;2022-11-11T01:57:50;11.52;81.92
68578;SHT31;61668;45.388;11.784;2022-11-11T02:00:22;11.51;81.88
68578;SHT31;61668;45.388;11.784;2022-11-11T02:02:54;11.49;81.80
68578;SHT31;61668;45.388;11.784;2022-11-11T02:05:28;11.47;81.79
68578;SHT31;61668;45.388;11.784;2022-11-11T02:08:17;11.42;81.77
68578;SHT31;61668;45.388;11.784;2022-11-11T02:11:00;11.39;81.82
68578;SHT31;61668;45.388;11.784;2022-11-11T02:13:38;11.37;81.82
68578;SHT31;61668;45.388;11.784;2022-11-11T02:16:24;11.34;81.71
68578;SHT31;61668;45.388;11.784;2022-11-11T02:18:50;11.29;81.67
68578;SHT31;61668;45.388;11.784;2022-11-11T02:21:22;11.26;81.70
68578;SHT31;61668;45.388;11.784;2022-11-11T02:24:00;11.23;81.70
68578;SHT31;61668;45.388;11.784;2022-11-11T02:26:30;11.19;81.72
68578;SHT31;61668;45.388;11.784;2022-11-11T02:28:59;11.17;81.80
68578;SHT31;61668;45.388;11.784;2022-11-11T02:31:27;11.16;81.97
68578;SHT31;61668;45.388;11.784;2022-11-11T02:33:54;11.17;82.00
68578;SHT31;61668;45.388;11.784;2022-11-11T02:36:19;11.18;81.92
68578;SHT31;61668;45.388;11.784;2022-11-11T02:38:46;11.18;81.94
68578;SHT31;61668;45.388;11.784;2022-11-11T02:41:11;11.18;81.94
68578;SHT31;61668;45.388;11.784;2022-11-11T02:43:55;11.15;81.89
68578;SHT31;61668;45.388;11.784;2022-11-11T02:46:21;11.11;81.80
68578;SHT31;61668;45.388;11.784;2022-11-11T02:48:47;11.06;81.85
68578;SHT31;61668;45.388;11.784;2022-11-11T02:51:12;11.04;81.81
68578;SHT31;61668;45.388;11.784;2022-11-11T02:53:38;11.01;81.84
68578;SHT31;61668;45.388;11.784;2022-11-11T02:56:03;11.00;81.73
68578;SHT31;61668;45.388;11.784;2022-11-11T02:58:29;10.97;81.60
68578;SHT31;61668;45.388;11.784;2022-11-11T03:00:55;10.95;81.61
68578;SHT31;61668;45.388;11.784;2022-11-11T03:03:20;10.93;81.68
68578;SHT31;61668;45.388;11.784;2022-11-11T03:05:46;10.92;81.63
68578;SHT31;61668;45.388;11.784;2022-11-11T03:08:11;10.91;81.68
68578;SHT31;61668;45.388;11.784;2022-11-11T03:10:37;10.90;81.75
68578;SHT31;61668;45.388;11.784;2022-11-11T03:13:02;10.88;81.73
68578;SHT31;61668;45.388;11.784;2022-11-11T03:15:28;10.84;81.74
68578;SHT31;61668;45.388;11.784;2022-11-11T03:17:53;10.81;81.86
68578;SHT31;61668;45.388;11.784;2022-11-11T03:20:19;10.79;81.95
68578;SHT31;61668;45.388;11.784;2022-11-11T03:23:07;10.78;82.05
68578;SHT31;61668;45.388;11.784;2022-11-11T03:25:39;10.78;82.11
68578;SHT31;61668;45.388;11.784;2022-11-11T03:30:46;10.76;82.01
68578;SHT31;61668;45.388;11.784;2022-11-11T03:33:14;10.75;81.83
68578;SHT31;61668;45.388;11.784;2022-11-11T03:35:42;10.75;81.78
68578;SHT31;61668;45.388;11.784;2022-11-11T03:38:11;10.72;81.72
68578;SHT31;61668;45.388;11.784;2022-11-11T03:40:47;10.70;81.85
68578;SHT31;61668;45.388;11.784;2022-11-11T03:43:18;10.69;81.87
68578;SHT31;61668;45.388;11.784;2022-11-11T03:45:46;10.67;81.97
68578;SHT31;61668;45.388;11.784;2022-11-11T03:48:12;10.66;82.08
68578;SHT31;61668;45.388;11.784;2022-11-11T03:50:38;10.62;82.10
68578;SHT31;61668;45.388;11.784;2022-11-11T03:53:04;10.58;82.13
68578;SHT31;61668;45.388;11.784;2022-11-11T03:55:30;10.54;82.19
68578;SHT31;61668;45.388;11.784;2022-11-11T03:57:55;10.50;82.29
68578;SHT31;61668;45.388;11.784;2022-11-11T04:00:23;10.46;82.29
68578;SHT31;61668;45.388;11.784;2022-11-11T04:02:51;10.43;82.19
68578;SHT31;61668;45.388;11.784;2022-11-11T04:05:45;10.39;82.20
68578;SHT31;61668;45.388;11.784;2022-11-11T04:08:29;10.36;82.16
68578;SHT31;61668;45.388;11.784;2022-11-11T04:11:14;10.34;82.08
68578;SHT31;61668;45.388;11.784;2022-11-11T04:14:11;10.28;82.04
68578;SHT31;61668;45.388;11.784;2022-11-11T04:16:57;10.23;82.15
68578;SHT31;61668;45.388;11.784;2022-11-11T04:19:23;10.19;82.05
68578;SHT31;61668;45.388;11.784;2022-11-11T04:22:08;10.15;81.95
68578;SHT31;61668;45.388;11.784;2022-11-11T04:24:34;10.15;81.91
68578;SHT31;61668;45.388;11.784;2022-11-11T04:27:19;10.15;81.80
68578;SHT31;61668;45.388;11.784;2022-11-11T04:29:44;10.15;81.81
68578;SHT31;61668;45.388;11.784;2022-11-11T04:32:15;10.13;81.72
68578;SHT31;61668;45.388;11.784;2022-11-11T04:35:00;10.13;81.92
68578;SHT31;61668;45.388;11.784;2022-11-11T04:37:31;10.13;81.80
68578;SHT31;61668;45.388;11.784;2022-11-11T04:39:59;10.15;81.78
68578;SHT31;61668;45.388;11.784;2022-11-11T04:42:44;10.15;81.70
68578;SHT31;61668;45.388;11.784;2022-11-11T04:45:09;10.14;81.60
68578;SHT31;61668;45.388;11.784;2022-11-11T04:50:21;10.04;81.45
68578;SHT31;61668;45.388;11.784;2022-11-11T04:52:48;9.99;81.57
68578;SHT31;61668;45.388;11.784;2022-11-11T04:55:13;9.92;81.66
68578;SHT31;61668;45.388;11.784;2022-11-11T04:57:58;9.83;81.84
68578;SHT31;61668;45.388;11.784;2022-11-11T05:00:24;9.73;82.05
68578;SHT31;61668;45.388;11.784;2022-11-11T05:02:52;9.67;82.20
68578;SHT31;61668;45.388;11.784;2022-11-11T05:05:37;9.64;82.21
68578;SHT31;61668;45.388;11.784;2022-11-11T05:08:22;9.60;82.21
68578;SHT31;61668;45.388;11.784;2022-11-11T05:11:06;9.57;82.24
68578;SHT31;61668;45.388;11.784;2022-11-11T05:13:32;9.55;82.29
68578;SHT31;61668;45.388;11.784;2022-11-11T05:16:17;9.53;82.23
68578;SHT31;61668;45.388;11.784;2022-11-11T05:19:10;9.51;82.20
68578;SHT31;61668;45.388;11.784;2022-11-11T05:21:56;9.49;82.19
68578;SHT31;61668;45.388;11.784;2022-11-11T05:24:40;9.47;82.17
68578;SHT31;61668;45.388;11.784;2022-11-11T05:29:55;9.43;82.27
68578;SHT31;61668;45.388;11.784;2022-11-11T05:32:21;9.41;82.30
68578;SHT31;61668;45.388;11.784;2022-11-11T05:34:48;9.37;82.34
68578;SHT31;61668;45.388;11.784;2022-11-11T05:37:14;9.35;82.37
68578;SHT31;61668;45.388;11.784;2022-11-11T05:39:40;9.32;82.35
68578;SHT31;61668;45.388;11.784;2022-11-11T05:42:07;9.27;82.49
68578;SHT31;61668;45.388;11.784;2022-11-11T05:44:33;9.25;82.55
68578;SHT31;61668;45.388;11.784;2022-11-11T05:46:59;9.23;82.47
68578;SHT31;61668;45.388;11.784;2022-11-11T05:49:25;9.22;82.41
68578;SHT31;61668;45.388;11.784;2022-11-11T05:51:51;9.19;82.51
68578;SHT31;61668;45.388;11.784;2022-11-11T05:54:17;9.16;82.86
68578;SHT31;61668;45.388;11.784;2022-11-11T05:56:43;9.14;83.02
68578;SHT31;61668;45.388;11.784;2022-11-11T05:59:09;9.15;83.20
68578;SHT31;61668;45.388;11.784;2022-11-11T06:01:35;9.14;83.13
68578;SHT31;61668;45.388;11.784;2022-11-11T06:04:02;9.11;83.11
68578;SHT31;61668;45.388;11.784;2022-11-11T06:06:29;9.07;83.20
68578;SHT31;61668;45.388;11.784;2022-11-11T06:08:55;9.07;83.34
68578;SHT31;61668;45.388;11.784;2022-11-11T06:11:21;9.10;83.33
68578;SHT31;61668;45.388;11.784;2022-11-11T06:13:47;9.11;83.25
68578;SHT31;61668;45.388;11.784;2022-11-11T06:16:13;9.13;83.12
68578;SHT31;61668;45.388;11.784;2022-11-11T06:18:50;9.14;83.20
68578;SHT31;61668;45.388;11.784;2022-11-11T06:21:16;9.18;83.13
68578;SHT31;61668;45.388;11.784;2022-11-11T06:23:42;9.21;83.12
68578;SHT31;61668;45.388;11.784;2022-11-11T06:26:12;9.21;82.92
68578;SHT31;61668;45.388;11.784;2022-11-11T06:28:45;9.22;82.90
68578;SHT31;61668;45.388;11.784;2022-11-11T06:31:17;9.24;82.99
68578;SHT31;61668;45.388;11.784;2022-11-11T06:33:45;9.28;83.00
68578;SHT31;61668;45.388;11.784;2022-11-11T06:36:11;9.30;83.02
68578;SHT31;61668;45.388;11.784;2022-11-11T06:38:38;9.35;82.99
68578;SHT31;61668;45.388;11.784;2022-11-11T06:41:05;9.38;82.88
68578;SHT31;61668;45.388;11.784;2022-11-11T06:43:31;9.40;82.92
68578;SHT31;61668;45.388;11.784;2022-11-11T06:45:57;9.42;83.00
68578;SHT31;61668;45.388;11.784;2022-11-11T06:48:24;9.46;82.99
68578;SHT31;61668;45.388;11.784;2022-11-11T06:50:52;9.49;82.90
68578;SHT31;61668;45.388;11.784;2022-11-11T06:53:24;9.49;83.03
68578;SHT31;61668;45.388;11.784;2022-11-11T06:55:52;9.48;83.21
68578;SHT31;61668;45.388;11.784;2022-11-11T06:58:18;9.50;83.35
68578;SHT31;61668;45.388;11.784;2022-11-11T07:00:45;9.53;83.57
68578;SHT31;61668;45.388;11.784;2022-11-11T07:03:13;9.60;83.69
68578;SHT31;61668;45.388;11.784;2022-11-11T07:05:41;9.70;83.86
68578;SHT31;61668;45.388;11.784;2022-11-11T07:08:09;9.82;83.98
68578;SHT31;61668;45.388;11.784;2022-11-11T07:10:38;9.97;84.10
68578;SHT31;61668;45.388;11.784;2022-11-11T07:13:08;10.14;84.28
68578;SHT31;61668;45.388;11.784;2022-11-11T07:15:34;10.33;84.37
68578;SHT31;61668;45.388;11.784;2022-11-11T07:18:00;10.50;84.27
68578;SHT31;61668;45.388;11.784;2022-11-11T07:20:25;10.68;84.06
68578;SHT31;61668;45.388;11.784;2022-11-11T07:22:51;10.85;84.03
68578;SHT31;61668;45.388;11.784;2022-11-11T07:25:17;10.98;83.89
68578;SHT31;61668;45.388;11.784;2022-11-11T07:27:42;11.08;83.78
68578;SHT31;61668;45.388;11.784;2022-11-11T07:30:08;11.19;83.72
68578;SHT31;61668;45.388;11.784;2022-11-11T07:32:35;11.31;83.67
68578;SHT31;61668;45.388;11.784;2022-11-11T07:35:04;11.43;83.58
68578;SHT31;61668;45.388;11.784;2022-11-11T07:37:29;11.55;83.41
68578;SHT31;61668;45.388;11.784;2022-11-11T07:39:55;11.63;83.31
68578;SHT31;61668;45.388;11.784;2022-11-11T07:42:21;11.72;83.37
68578;SHT31;61668;45.388;11.784;2022-11-11T07:44:47;11.86;83.34
68578;SHT31;61668;45.388;11.784;2022-11-11T07:47:12;12.08;83.17
68578;SHT31;61668;45.388;11.784;2022-11-11T07:49:37;12.36;82.60
68578;SHT31;61668;45.388;11.784;2022-11-11T07:52:03;12.67;82.15
68578;SHT31;61668;45.388;11.784;2022-11-11T07:54:29;12.97;81.60
68578;SHT31;61668;45.388;11.784;2022-11-11T07:56:55;13.29;81.34
68578;SHT31;61668;45.388;11.784;2022-11-11T07:59:20;13.65;80.71
68578;SHT31;61668;45.388;11.784;2022-11-11T08:01:46;14.05;80.02
68578;SHT31;61668;45.388;11.784;2022-11-11T08:04:11;14.49;79.69
68578;SHT31;61668;45.388;11.784;2022-11-11T08:06:37;14.92;78.80
68578;SHT31;61668;45.388;11.784;2022-11-11T08:09:02;15.34;78.19
68578;SHT31;61668;45.388;11.784;2022-11-11T08:11:28;15.70;77.50
68578;SHT31;61668;45.388;11.784;2022-11-11T08:14:12;16.14;76.61
68578;SHT31;61668;45.388;11.784;2022-11-11T08:16:37;16.56;75.42
68578;SHT31;61668;45.388;11.784;2022-11-11T08:19:03;16.88;73.97
68578;SHT31;61668;45.388;11.784;2022-11-11T08:21:28;17.17;73.27
68578;SHT31;61668;45.388;11.784;2022-11-11T08:23:54;17.57;72.93
68578;SHT31;61668;45.388;11.784;2022-11-11T08:26:20;18.03;72.08
68578;SHT31;61668;45.388;11.784;2022-11-11T08:28:47;18.46;71.19
68578;SHT31;61668;45.388;11.784;2022-11-11T08:31:13;18.83;70.10
68578;SHT31;61668;45.388;11.784;2022-11-11T08:33:39;19.14;68.91
68578;SHT31;61668;45.388;11.784;2022-11-11T08:36:05;19.46;67.97
68578;SHT31;61668;45.388;11.784;2022-11-11T08:38:32;19.82;67.21
68578;SHT31;61668;45.388;11.784;2022-11-11T08:40:59;20.02;66.17
68578;SHT31;61668;45.388;11.784;2022-11-11T08:43:26;20.21;65.65
68578;SHT31;61668;45.388;11.784;2022-11-11T08:45:56;20.31;64.53
68578;SHT31;61668;45.388;11.784;2022-11-11T08:48:25;20.26;64.28
68578;SHT31;61668;45.388;11.784;2022-11-11T08:50:51;20.35;64.00
68578;SHT31;61668;45.388;11.784;2022-11-11T08:53:18;20.42;63.80
68578;SHT31;61668;45.388;11.784;2022-11-11T08:55:44;20.41;63.29
68578;SHT31;61668;45.388;11.784;2022-11-11T08:58:10;20.32;63.32
68578;SHT31;61668;45.388;11.784;2022-11-11T09:00:37;20.21;63.17
68578;SHT31;61668;45.388;11.784;2022-11-11T09:03:03;20.25;62.99
68578;SHT31;61668;45.388;11.784;2022-11-11T09:05:36;20.33;62.69
68578;SHT31;61668;45.388;11.784;2022-11-11T09:08:04;20.40;62.21
68578;SHT31;61668;45.388;11.784;2022-11-11T09:10:32;20.53;61.88
68578;SHT31;61668;45.388;11.784;2022-11-11T09:12:59;20.68;61.54
68578;SHT31;61668;45.388;11.784;2022-11-11T09:15:25;20.80;61.57
68578;SHT31;61668;45.388;11.784;2022-11-11T09:17:51;20.90;61.09
68578;SHT31;61668;45.388;11.784;2022-11-11T09:20:17;21.03;60.84
68578;SHT31;61668;45.388;11.784;2022-11-11T09:22:44;21.09;60.19
68578;SHT31;61668;45.388;11.784;2022-11-11T09:25:11;21.14;60.29
68578;SHT31;61668;45.388;11.784;2022-11-11T09:27:37;21.24;59.90
68578;SHT31;61668;45.388;11.784;2022-11-11T09:30:03;21.36;59.81
68578;SHT31;61668;45.388;11.784;2022-11-11T09:32:30;21.42;59.88
68578;SHT31;61668;45.388;11.784;2022-11-11T09:34:56;21.34;59.92
68578;SHT31;61668;45.388;11.784;2022-11-11T09:37:22;21.30;59.94
68578;SHT31;61668;45.388;11.784;2022-11-11T09:39:48;21.20;60.06
68578;SHT31;61668;45.388;11.784;2022-11-11T09:47:31;20.48;59.84
68578;SHT31;61668;45.388;11.784;2022-11-11T09:50:09;20.31;59.92
68578;SHT31;61668;45.388;11.784;2022-11-11T09:55:39;19.88;59.95
68578;SHT31;61668;45.388;11.784;2022-11-11T09:58:13;19.75;60.52
68578;SHT31;61668;45.388;11.784;2022-11-11T10:00:45;19.66;60.40
68578;SHT31;61668;45.388;11.784;2022-11-11T10:03:38;19.55;60.32
68578;SHT31;61668;45.388;11.784;2022-11-11T10:06:22;19.44;60.11
68578;SHT31;61668;45.388;11.784;2022-11-11T10:11:39;19.26;59.71
68578;SHT31;61668;45.388;11.784;2022-11-11T10:14:33;19.15;59.95
68578;SHT31;61668;45.388;11.784;2022-11-11T10:20:13;18.99;59.23
68578;SHT31;61668;45.388;11.784;2022-11-11T10:22:53;18.84;59.25
68578;SHT31;61668;45.388;11.784;2022-11-11T10:25:27;18.72;59.67
68578;SHT31;61668;45.388;11.784;2022-11-11T10:27:55;18.64;59.71
68578;SHT31;61668;45.388;11.784;2022-11-11T10:30:29;18.54;59.77
68578;SHT31;61668;45.388;11.784;2022-11-11T10:35:49;18.45;60.21
68578;SHT31;61668;45.388;11.784;2022-11-11T10:40:52;18.41;60.29
68578;SHT31;61668;45.388;11.784;2022-11-11T10:43:25;18.39;60.61
68578;SHT31;61668;45.388;11.784;2022-11-11T10:48:39;18.41;60.97
68578;SHT31;61668;45.388;11.784;2022-11-11T10:51:20;18.42;60.96
68578;SHT31;61668;45.388;11.784;2022-11-11T10:53:50;18.40;60.72
68578;SHT31;61668;45.388;11.784;2022-11-11T10:56:35;18.39;61.04
68578;SHT31;61668;45.388;11.784;2022-11-11T10:59:10;18.39;61.48
68578;SHT31;61668;45.388;11.784;2022-11-11T11:04:40;18.44;61.75
68578;SHT31;61668;45.388;11.784;2022-11-11T11:07:14;18.44;61.44
68578;SHT31;61668;45.388;11.784;2022-11-11T11:09:56;18.45;61.34
68578;SHT31;61668;45.388;11.784;2022-11-11T11:15:26;18.48;61.61
68578;SHT31;61668;45.388;11.784;2022-11-11T11:17:58;18.51;61.21
68578;SHT31;61668;45.388;11.784;2022-11-11T11:20:28;18.56;61.36
68578;SHT31;61668;45.388;11.784;2022-11-11T11:22:55;18.59;61.59
68578;SHT31;61668;45.388;11.784;2022-11-11T11:25:27;18.65;61.56
68578;SHT31;61668;45.388;11.784;2022-11-11T11:28:10;18.69;61.23
68578;SHT31;61668;45.388;11.784;2022-11-11T11:30:37;18.75;61.34
68578;SHT31;61668;45.388;11.784;2022-11-11T11:33:04;18.78;61.13
68578;SHT31;61668;45.388;11.784;2022-11-11T11:38:01;18.83;60.75
68578;SHT31;61668;45.388;11.784;2022-11-11T11:40:45;18.83;60.68
68578;SHT31;61668;45.388;11.784;2022-11-11T11:43:26;18.84;60.50
68578;SHT31;61668;45.388;11.784;2022-11-11T11:46:01;18.84;60.55
68578;SHT31;61668;45.388;11.784;2022-11-11T11:51:20;18.83;60.50
68578;SHT31;61668;45.388;11.784;2022-11-11T11:54:12;18.83;60.66
68578;SHT31;61668;45.388;11.784;2022-11-11T11:56:53;18.82;60.68
68578;SHT31;61668;45.388;11.784;2022-11-11T11:59:40;18.82;60.59
68578;SHT31;61668;45.388;11.784;2022-11-11T12:05:36;18.76;60.87
68578;SHT31;61668;45.388;11.784;2022-11-11T12:11:27;18.67;61.13
68578;SHT31;61668;45.388;11.784;2022-11-11T12:14:17;18.64;61.46
68578;SHT31;61668;45.388;11.784;2022-11-11T12:20:13;18.58;61.11
68578;SHT31;61668;45.388;11.784;2022-11-11T12:33:47;18.52;61.33
68578;SHT31;61668;45.388;11.784;2022-11-11T12:37:04;18.51;61.18
68578;SHT31;61668;45.388;11.784;2022-11-11T12:43:37;18.51;61.11
68578;SHT31;61668;45.388;11.784;2022-11-11T12:46:01;18.52;60.89
68578;SHT31;61668;45.388;11.784;2022-11-11T12:48:36;18.52;60.78
68578;SHT31;61668;45.388;11.784;2022-11-11T12:51:32;18.50;61.03
68578;SHT31;61668;45.388;11.784;2022-11-11T13:03:49;18.41;61.37
68578;SHT31;61668;45.388;11.784;2022-11-11T13:07:13;18.41;61.47
68578;SHT31;61668;45.388;11.784;2022-11-11T13:09:49;18.42;61.82
68578;SHT31;61668;45.388;11.784;2022-11-11T13:15:22;18.42;61.48
68578;SHT31;61668;45.388;11.784;2022-11-11T13:17:50;18.40;61.35
68578;SHT31;61668;45.388;11.784;2022-11-11T13:23:10;18.41;61.80
68578;SHT31;61668;45.388;11.784;2022-11-11T13:25:38;18.40;61.56
68578;SHT31;61668;45.388;11.784;2022-11-11T13:33:50;18.35;61.59
68578;SHT31;61668;45.388;11.784;2022-11-11T13:36:24;18.33;61.61
68578;SHT31;61668;45.388;11.784;2022-11-11T13:38:53;18.33;61.83
68578;SHT31;61668;45.388;11.784;2022-11-11T13:41:30;18.32;62.11
68578;SHT31;61668;45.388;11.784;2022-11-11T13:44:00;18.29;61.82
68578;SHT31;61668;45.388;11.784;2022-11-11T13:46:40;18.27;61.56
68578;SHT31;61668;45.388;11.784;2022-11-11T13:52:02;18.26;61.96
68578;SHT31;61668;45.388;11.784;2022-11-11T13:59:56;18.26;61.54
68578;SHT31;61668;45.388;11.784;2022-11-11T14:02:44;18.26;61.46
68578;SHT31;61668;45.388;11.784;2022-11-11T14:07:47;18.24;61.52
68578;SHT31;61668;45.388;11.784;2022-11-11T14:12:43;18.19;61.27
68578;SHT31;61668;45.388;11.784;2022-11-11T14:20:41;18.08;61.90
68578;SHT31;61668;45.388;11.784;2022-11-11T14:23:52;18.05;62.31
68578;SHT31;61668;45.388;11.784;2022-11-11T14:26:14;17.99;62.59
68578;SHT31;61668;45.388;11.784;2022-11-11T14:28:49;17.94;62.66
68578;SHT31;61668;45.388;11.784;2022-11-11T14:33:51;17.87;62.69
68578;SHT31;61668;45.388;11.784;2022-11-11T14:42:01;17.82;63.81
68578;SHT31;61668;45.388;11.784;2022-11-11T14:55:18;17.66;65.26
68578;SHT31;61668;45.388;11.784;2022-11-11T14:57:54;17.61;65.52
68578;SHT31;61668;45.388;11.784;2022-11-11T15:00:27;17.55;65.82
68578;SHT31;61668;45.388;11.784;2022-11-11T15:03:02;17.50;65.85
68578;SHT31;61668;45.388;11.784;2022-11-11T15:14:48;17.24;67.55
68578;SHT31;61668;45.388;11.784;2022-11-11T15:21:03;17.08;68.16
68578;SHT31;61668;45.388;11.784;2022-11-11T15:24:12;16.99;68.37
68578;SHT31;61668;45.388;11.784;2022-11-11T15:32:59;16.72;69.13
68578;SHT31;61668;45.388;11.784;2022-11-11T15:35:35;16.64;69.45
68578;SHT31;61668;45.388;11.784;2022-11-11T15:38:09;16.54;69.68
68578;SHT31;61668;45.388;11.784;2022-11-11T15:40:48;16.46;69.93
68578;SHT31;61668;45.388;11.784;2022-11-11T15:43:29;16.39;70.05
68578;SHT31;61668;45.388;11.784;2022-11-11T15:46:01;16.30;70.12
68578;SHT31;61668;45.388;11.784;2022-11-11T15:50:56;16.16;70.58
68578;SHT31;61668;45.388;11.784;2022-11-11T15:53:26;16.10;70.74
68578;SHT31;61668;45.388;11.784;2022-11-11T15:55:55;16.02;70.96
68578;SHT31;61668;45.388;11.784;2022-11-11T15:58:28;15.93;71.15
68578;SHT31;61668;45.388;11.784;2022-11-11T16:00:57;15.85;71.30
68578;SHT31;61668;45.388;11.784;2022-11-11T16:06:03;15.66;71.57
68578;SHT31;61668;45.388;11.784;2022-11-11T16:08:33;15.59;71.75
68578;SHT31;61668;45.388;11.784;2022-11-11T16:10:59;15.51;71.95
68578;SHT31;61668;45.388;11.784;2022-11-11T16:13:39;15.44;72.14
68578;SHT31;61668;45.388;11.784;2022-11-11T16:16:18;15.38;72.33
68578;SHT31;61668;45.388;11.784;2022-11-11T16:22:10;15.24;72.80
68578;SHT31;61668;45.388;11.784;2022-11-11T16:24:43;15.18;72.98
68578;SHT31;61668;45.388;11.784;2022-11-11T16:27:11;15.11;73.17
68578;SHT31;61668;45.388;11.784;2022-11-11T16:29:42;15.06;73.31
68578;SHT31;61668;45.388;11.784;2022-11-11T16:32:18;15.01;73.50
68578;SHT31;61668;45.388;11.784;2022-11-11T16:34:57;14.94;73.67
68578;SHT31;61668;45.388;11.784;2022-11-11T16:37:23;14.88;73.78
68578;SHT31;61668;45.388;11.784;2022-11-11T16:39:48;14.82;73.98
68578;SHT31;61668;45.388;11.784;2022-11-11T16:42:27;14.73;74.19
68578;SHT31;61668;45.388;11.784;2022-11-11T16:45:02;14.67;74.30
68578;SHT31;61668;45.388;11.784;2022-11-11T16:50:16;14.52;74.77
68578;SHT31;61668;45.388;11.784;2022-11-11T16:53:00;14.46;74.90
68578;SHT31;61668;45.388;11.784;2022-11-11T16:55:42;14.38;75.04
68578;SHT31;61668;45.388;11.784;2022-11-11T16:58:19;14.33;75.30
68578;SHT31;61668;45.388;11.784;2022-11-11T17:00:47;14.26;75.50
68578;SHT31;61668;45.388;11.784;2022-11-11T17:14:03;13.93;76.40
68578;SHT31;61668;45.388;11.784;2022-11-11T17:16:28;13.87;76.59
68578;SHT31;61668;45.388;11.784;2022-11-11T17:18:53;13.82;76.70
68578;SHT31;61668;45.388;11.784;2022-11-11T17:21:19;13.77;76.84
68578;SHT31;61668;45.388;11.784;2022-11-11T17:23:44;13.74;77.05
68578;SHT31;61668;45.388;11.784;2022-11-11T17:26:10;13.69;77.18
68578;SHT31;61668;45.388;11.784;2022-11-11T17:28:36;13.65;77.29
68578;SHT31;61668;45.388;11.784;2022-11-11T17:31:02;13.62;77.51
68578;SHT31;61668;45.388;11.784;2022-11-11T17:33:29;13.59;77.57
68578;SHT31;61668;45.388;11.784;2022-11-11T17:35:55;13.55;77.65
68578;SHT31;61668;45.388;11.784;2022-11-11T17:38:22;13.49;77.68
68578;SHT31;61668;45.388;11.784;2022-11-11T17:40:48;13.42;77.84
68578;SHT31;61668;45.388;11.784;2022-11-11T17:43:14;13.37;78.02
68578;SHT31;61668;45.388;11.784;2022-11-11T17:45:40;13.31;78.17
68578;SHT31;61668;45.388;11.784;2022-11-11T17:48:06;13.26;78.29
68578;SHT31;61668;45.388;11.784;2022-11-11T17:50:37;13.22;78.39
68578;SHT31;61668;45.388;11.784;2022-11-11T17:53:04;13.18;78.40
68578;SHT31;61668;45.388;11.784;2022-11-11T17:55:31;13.14;78.44
68578;SHT31;61668;45.388;11.784;2022-11-11T17:57:57;13.09;78.49
68578;SHT31;61668;45.388;11.784;2022-11-11T18:00:24;13.05;78.49
68578;SHT31;61668;45.388;11.784;2022-11-11T18:02:50;13.02;78.52
68578;SHT31;61668;45.388;11.784;2022-11-11T18:05:15;12.97;78.72
68578;SHT31;61668;45.388;11.784;2022-11-11T18:07:41;12.93;78.96
68578;SHT31;61668;45.388;11.784;2022-11-11T18:10:07;12.89;79.00
68578;SHT31;61668;45.388;11.784;2022-11-11T18:12:34;12.85;79.04
68578;SHT31;61668;45.388;11.784;2022-11-11T18:15:00;12.82;79.19
68578;SHT31;61668;45.388;11.784;2022-11-11T18:17:26;12.79;79.30
68578;SHT31;61668;45.388;11.784;2022-11-11T18:19:51;12.76;79.42
68578;SHT31;61668;45.388;11.784;2022-11-11T18:22:17;12.74;79.46
68578;SHT31;61668;45.388;11.784;2022-11-11T18:24:42;12.70;79.50
68578;SHT31;61668;45.388;11.784;2022-11-11T18:27:08;12.66;79.51
68578;SHT31;61668;45.388;11.784;2022-11-11T18:29:33;12.63;79.62
68578;SHT31;61668;45.388;11.784;2022-11-11T18:31:59;12.60;79.64
68578;SHT31;61668;45.388;11.784;2022-11-11T18:34:25;12.56;79.66